Sanmanyoshi5 — JD3207 — position and weather

sailwx.info

Track history (hours):
 
Tides and Currents Weather Stations Pressure Air Temp Water Temp Dewpoint Dewpoint Depression Visibility Wind Speed Wind Dir Waves Ship Positions

Sanmanyoshi5

Last reported at 2018-Jun-25 05:22 UTC. Time now 2018-Jun-25 19:37 UTC.
Position N 34°28' E 134°30'.

Length 61 m.

Type: Cargo ship. MMSI: 431002518.

Date/timePositionNaut miles runAvg speedWind from/ knotsBaromVisibWave heightAir tempDewpointWater temp
2018-Jun-25 05:22N 34°28' E 134°30'911.6
2018-Jun-25 04:35N 34°31' E 134°41'311.4
2018-Jun-25 04:21N 34°32' E 134°44'17 8.7
2018-Jun-25 02:27N 34°36' E 135°03'510.0
2018-Jun-25 01:58N 34°35' E 135°09'611.6
2018-Jun-25 01:28N 34°34' E 135°16'5 0.4
2018-Jun-24 12:31N 34°33' E 135°21'110.4
2018-Jun-24 12:27N 34°33' E 135°20'510.6
2018-Jun-24 12:00N 34°34' E 135°15'510.5
2018-Jun-24 11:29N 34°34' E 135°08'5 9.6
2018-Jun-24 11:00N 34°36' E 135°03'16 8.2
2018-Jun-24 09:06N 34°32' E 134°44'10 9.8
2018-Jun-24 08:05N 34°28' E 134°33'  
2018-Jun-18 08:18N 34°28' E 134°31'810.7
2018-Jun-18 07:35N 34°31' E 134°40'311.0
2018-Jun-18 07:17N 34°32' E 134°43'18 9.9
2018-Jun-18 05:26N 34°36' E 135°05'511.5
2018-Jun-18 05:00N 34°36' E 135°11'812.0
2018-Jun-18 04:22N 34°36' E 135°20'410.4
2018-Jun-18 04:00N 34°37' E 135°25'0 0.3
2018-Jun-18 03:28N 34°38' E 135°25'0 0.0
2018-Jun-18 00:10N 34°38' E 135°25'0 0.0
2018-Jun-17 23:58N 34°38' E 135°25'0 0.0
2018-Jun-17 23:28N 34°38' E 135°25'0 0.0
2018-Jun-17 22:58N 34°38' E 135°25'1 2.9
2018-Jun-17 22:30N 34°37' E 135°24'0 0.0
2018-Jun-16 22:46N 34°36' E 135°24'310.4
2018-Jun-16 22:26N 34°36' E 135°19'4 9.6
2018-Jun-16 22:00N 34°35' E 135°14'510.6
2018-Jun-16 21:29N 34°35' E 135°08'1911.3
2018-Jun-16 19:47N 34°31' E 134°45'1010.8
2018-Jun-16 18:53N 34°28' E 134°34'  
Track history (hours):
 
Tides and Currents Weather Stations Pressure Air Temp Water Temp Dewpoint Dewpoint Depression Visibility Wind Speed Wind Dir Waves Ship Positions

Sanmanyoshi5

Last reported at 2018-Jun-25 05:22 UTC. Time now 2018-Jun-25 19:37 UTC.
Position N 34°28' E 134°30'.

Length 61 m.

Type: Cargo ship. MMSI: 431002518.

Date/timePositionNaut miles runAvg speedWind from/ knotsBaromVisibWave heightAir tempDewpointWater temp
2018-Jun-25 05:22N 34°28' E 134°30'911.6
2018-Jun-25 04:35N 34°31' E 134°41'311.4
2018-Jun-25 04:21N 34°32' E 134°44'17 8.7
2018-Jun-25 02:27N 34°36' E 135°03'510.0
2018-Jun-25 01:58N 34°35' E 135°09'611.6
2018-Jun-25 01:28N 34°34' E 135°16'5 0.4
2018-Jun-24 12:31N 34°33' E 135°21'110.4
2018-Jun-24 12:27N 34°33' E 135°20'510.6
2018-Jun-24 12:00N 34°34' E 135°15'510.5
2018-Jun-24 11:29N 34°34' E 135°08'5 9.6
2018-Jun-24 11:00N 34°36' E 135°03'16 8.2
2018-Jun-24 09:06N 34°32' E 134°44'10 9.8
2018-Jun-24 08:05N 34°28' E 134°33'  
2018-Jun-18 08:18N 34°28' E 134°31'810.7
2018-Jun-18 07:35N 34°31' E 134°40'311.0
2018-Jun-18 07:17N 34°32' E 134°43'18 9.9
2018-Jun-18 05:26N 34°36' E 135°05'511.5
2018-Jun-18 05:00N 34°36' E 135°11'812.0
2018-Jun-18 04:22N 34°36' E 135°20'410.4
2018-Jun-18 04:00N 34°37' E 135°25'0 0.3
2018-Jun-18 03:28N 34°38' E 135°25'0 0.0
2018-Jun-18 00:10N 34°38' E 135°25'0 0.0
2018-Jun-17 23:58N 34°38' E 135°25'0 0.0
2018-Jun-17 23:28N 34°38' E 135°25'0 0.0
2018-Jun-17 22:58N 34°38' E 135°25'1 2.9
2018-Jun-17 22:30N 34°37' E 135°24'0 0.0
2018-Jun-16 22:46N 34°36' E 135°24'310.4
2018-Jun-16 22:26N 34°36' E 135°19'4 9.6
2018-Jun-16 22:00N 34°35' E 135°14'510.6
2018-Jun-16 21:29N 34°35' E 135°08'1911.3
2018-Jun-16 19:47N 34°31' E 134°45'1010.8
2018-Jun-16 18:53N 34°28' E 134°34'  

Dump ship's entire track history